Time;durP1;ratioP1;P1;durP2;ratioP2;P2;SDS_P1;SDS_P2;PMS_P1;PMS_P2;Temp;Humidity;BMP_temperature;BMP_pressure;BME280_temperature;BME280_humidity;BME280_pressure;Samples;Min_cycle;Max_cycle;Signal;HPM_P1;HPM_P2
2021/08/04 00:00:53;;;;;;;1.50;1.40;;;;;;;17.16;92.51;98488.50;4939162;28;102719;-59
2021/08/04 00:03:21;;;;;;;2.63;1.55;;;;;;;17.18;91.96;98483.84;4960174;28;103206;-61
2021/08/04 00:05:50;;;;;;;2.20;1.90;;;;;;;17.02;93.03;98489.91;4960978;28;103141;-63
2021/08/04 00:08:19;;;;;;;3.92;1.80;;;;;;;16.96;93.48;98489.69;4958877;28;102735;-60
2021/08/04 00:10:47;;;;;;;1.92;1.73;;;;;;;16.86;93.40;98483.63;4960563;28;102652;-58
2021/08/04 00:13:17;;;;;;;1.92;1.63;;;;;;;16.84;93.94;98489.13;4924176;28;105753;-59
2021/08/04 00:15:45;;;;;;;1.90;1.77;;;;;;;16.99;93.43;98481.38;4957488;28;104288;-59
2021/08/04 00:18:14;;;;;;;1.95;1.75;;;;;;;17.04;92.69;98479.09;4958225;28;102589;-58
2021/08/04 00:20:43;;;;;;;1.60;1.48;;;;;;;17.07;92.94;98481.44;4956190;28;102700;-60
2021/08/04 00:23:11;;;;;;;2.72;1.38;;;;;;;17.07;93.57;98484.94;4958787;28;104872;-59
2021/08/04 00:25:40;;;;;;;2.70;1.70;;;;;;;16.95;94.02;98477.38;4955628;28;103633;-60
2021/08/04 00:28:08;;;;;;;2.35;1.80;;;;;;;16.94;94.63;98481.84;4959211;28;102644;-60
2021/08/04 00:30:37;;;;;;;1.52;1.42;;;;;;;17.00;94.57;98477.72;4959057;28;102664;-59
2021/08/04 00:33:06;;;;;;;1.60;1.50;;;;;;;16.94;94.45;98481.00;4959794;28;104397;-59
2021/08/04 00:35:34;;;;;;;1.38;1.27;;;;;;;16.94;93.92;98478.34;4954378;28;104358;-59
2021/08/04 00:38:10;;;;;;;1.50;1.40;;;;;;;16.92;94.07;98478.50;4955882;28;102814;-60
2021/08/04 00:40:38;;;;;;;1.40;1.30;;;;;;;16.95;94.36;98478.22;4936556;28;102652;-61
2021/08/04 00:43:07;;;;;;;1.00;1.00;;;;;;;16.95;93.94;98480.03;4935267;28;103174;-59
2021/08/04 00:45:37;;;;;;;1.35;1.25;;;;;;;16.93;94.02;98476.66;4927890;28;103467;-59
2021/08/04 00:48:07;;;;;;;1.52;1.20;;;;;;;16.90;94.34;98472.47;4941322;28;102755;-59
2021/08/04 00:50:36;;;;;;;1.25;1.15;;;;;;;16.93;94.15;98477.50;4958638;28;102895;-60
2021/08/04 00:53:18;;;;;;;1.63;1.52;;;;;;;16.98;94.11;98480.53;4959687;28;103617;-59
2021/08/04 00:55:46;;;;;;;1.60;1.40;;;;;;;16.98;94.14;98487.72;4960604;28;103196;-58
2021/08/04 00:58:15;;;;;;;2.00;1.80;;;;;;;16.91;93.62;98484.84;4960846;28;102664;-59
2021/08/04 01:00:51;;;;;;;1.52;1.42;;;;;;;16.93;93.46;98479.34;4962026;28;102655;-58
2021/08/04 01:03:20;;;;;;;1.38;1.05;;;;;;;16.88;93.89;98471.81;4955588;28;103839;-58
2021/08/04 01:05:54;;;;;;;2.53;1.60;;;;;;;16.82;93.26;98477.75;4960316;28;103222;-58
2021/08/04 01:08:28;;;;;;;1.98;1.77;;;;;;;16.86;93.19;98472.97;4943313;28;103838;-58
2021/08/04 01:10:58;;;;;;;1.98;1.63;;;;;;;16.81;93.42;98466.25;4958677;28;102782;-59
2021/08/04 01:13:30;;;;;;;1.75;1.50;;;;;;;16.78;93.28;98465.75;4960284;28;104596;-59
2021/08/04 01:16:07;;;;;;;2.55;1.83;;;;;;;16.70;93.70;98457.69;4945194;28;103181;-58
2021/08/04 01:18:40;;;;;;;2.05;1.85;;;;;;;16.72;93.61;98456.53;4959454;28;102976;-59
2021/08/04 01:21:11;;;;;;;1.50;1.40;;;;;;;16.75;93.14;98452.72;4958126;28;103016;-60
2021/08/04 01:23:45;;;;;;;1.98;1.58;;;;;;;16.60;93.04;98447.09;4960336;28;103374;-60
2021/08/04 01:26:25;;;;;;;1.83;1.70;;;;;;;16.66;92.94;98456.31;4961140;28;104407;-59
2021/08/04 01:28:57;;;;;;;3.50;1.35;;;;;;;16.49;94.17;98460.63;4940671;28;102803;-59
2021/08/04 01:31:28;;;;;;;1.80;1.48;;;;;;;16.51;93.95;98463.97;4961632;28;102823;-59
2021/08/04 01:33:58;;;;;;;1.80;1.70;;;;;;;16.54;94.34;98460.19;4938852;28;103474;-59
2021/08/04 01:36:27;;;;;;;1.67;1.58;;;;;;;16.52;94.45;98459.47;4960688;28;104354;-59
2021/08/04 01:38:56;;;;;;;1.98;1.25;;;;;;;16.52;94.16;98460.31;4958883;28;102546;-60
2021/08/04 01:41:27;;;;;;;2.97;1.50;;;;;;;16.51;93.97;98461.31;4960746;28;102653;-59
2021/08/04 01:43:57;;;;;;;1.98;1.42;;;;;;;16.55;93.74;98464.53;4947112;28;104328;-59
2021/08/04 01:46:25;;;;;;;1.45;1.35;;;;;;;16.61;94.71;98469.25;4959766;28;104388;-60
2021/08/04 01:48:54;;;;;;;2.15;1.85;;;;;;;16.61;94.69;98467.44;4941727;28;102835;-59
2021/08/04 01:51:25;;;;;;;1.42;1.27;;;;;;;16.63;94.01;98472.59;4940684;28;102671;-59
2021/08/04 01:53:54;;;;;;;3.20;1.67;;;;;;;16.64;94.23;98467.13;4959473;28;104431;-59
2021/08/04 01:56:22;;;;;;;2.88;2.47;;;;;;;16.36;96.20;98460.19;4959734;28;103532;-59
2021/08/04 01:58:52;;;;;;;2.40;1.83;;;;;;;16.37;97.16;98461.84;4960044;28;103644;-59
2021/08/04 02:01:25;;;;;;;2.10;1.52;;;;;;;16.36;96.79;98460.19;4936964;28;102900;-59
2021/08/04 02:03:54;;;;;;;1.85;1.75;;;;;;;16.37;96.76;98461.84;4941531;28;103686;-59
2021/08/04 02:06:30;;;;;;;1.88;1.70;;;;;;;16.50;96.06;98462.31;4943433;28;104213;-59
2021/08/04 02:09:02;;;;;;;1.70;1.60;;;;;;;16.56;95.35;98464.38;4944145;28;102641;-59
2021/08/04 02:11:49;;;;;;;1.48;1.30;;;;;;;16.55;93.43;98461.88;4960391;28;102761;-59
2021/08/04 02:14:25;;;;;;;2.35;1.13;;;;;;;16.58;92.96;98462.41;4960635;28;103382;-59
2021/08/04 02:17:02;;;;;;;1.90;1.27;;;;;;;16.60;91.87;98463.09;4943027;28;104415;-59
2021/08/04 02:19:36;;;;;;;2.17;1.50;;;;;;;16.57;92.25;98463.41;4957080;28;102904;-59
2021/08/04 02:22:10;;;;;;;2.92;1.27;;;;;;;16.56;93.09;98467.03;4960204;28;102553;-59
2021/08/04 02:24:45;;;;;;;1.20;1.10;;;;;;;16.57;93.34;98468.72;4942334;28;105824;-58
2021/08/04 02:27:15;;;;;;;1.30;1.20;;;;;;;16.55;93.39;98464.53;4958341;28;103215;-59
2021/08/04 02:29:48;;;;;;;2.47;1.30;;;;;;;16.57;93.10;98468.72;4955576;28;102681;-59
2021/08/04 02:32:16;;;;;;;1.98;1.77;;;;;;;16.53;93.63;98464.69;4941034;28;104029;-59
2021/08/04 02:34:44;;;;;;;2.88;1.58;;;;;;;16.41;95.45;98465.91;4940163;28;103661;-59
2021/08/04 02:37:12;;;;;;;1.30;1.20;;;;;;;16.43;95.47;98461.25;4961606;28;103395;-60
2021/08/04 02:39:41;;;;;;;1.25;1.10;;;;;;;16.44;95.55;98457.59;4957970;28;102491;-59
2021/08/04 02:42:16;;;;;;;1.33;1.23;;;;;;;16.48;95.22;98453.59;4961589;28;102641;-60
2021/08/04 02:44:46;;;;;;;2.75;1.88;;;;;;;16.49;94.64;98449.97;4954915;28;104468;-60
2021/08/04 02:47:15;;;;;;;2.25;1.58;;;;;;;16.52;93.90;98449.66;4958494;28;104215;-60
2021/08/04 02:49:44;;;;;;;1.27;1.17;;;;;;;16.53;92.88;98446.00;4940164;28;102905;-60
2021/08/04 02:52:14;;;;;;;1.35;1.25;;;;;;;16.43;91.61;98452.41;4956198;28;104073;-59
2021/08/04 02:54:44;;;;;;;1.65;1.55;;;;;;;16.36;92.19;98449.53;4956283;28;104295;-60
2021/08/04 02:57:12;;;;;;;2.15;1.70;;;;;;;16.30;91.99;98454.63;4942278;28;103375;-60
2021/08/04 02:59:46;;;;;;;1.50;1.40;;;;;;;16.33;92.79;98455.16;4960903;28;102911;-59
2021/08/04 03:02:15;;;;;;;1.80;1.70;;;;;;;16.32;92.36;98442.81;4963509;28;102697;-60
2021/08/04 03:04:43;;;;;;;1.77;1.40;;;;;;;16.28;91.71;98443.28;4959077;28;105341;-59
2021/08/04 03:07:11;;;;;;;2.55;1.75;;;;;;;16.31;92.10;98456.31;4943042;28;103401;-59
2021/08/04 03:09:40;;;;;;;3.70;2.20;;;;;;;16.17;91.86;98452.31;4939188;28;103022;-59
2021/08/04 03:12:08;;;;;;;1.52;1.42;;;;;;;16.14;92.43;98455.31;4959341;28;102649;-59
2021/08/04 03:14:36;;;;;;;1.70;1.60;;;;;;;16.16;92.29;98458.66;4948759;28;104474;-60
2021/08/04 03:17:06;;;;;;;1.63;1.53;;;;;;;16.19;92.70;98453.03;4960036;28;103480;-60
2021/08/04 03:19:34;;;;;;;3.40;1.77;;;;;;;16.21;92.70;98448.38;4940407;28;102687;-59
2021/08/04 03:22:02;;;;;;;1.92;1.48;;;;;;;16.17;93.63;98455.81;4956949;28;102734;-59
2021/08/04 03:24:31;;;;;;;1.40;1.30;;;;;;;16.28;93.40;98452.09;4957698;28;104552;-59
2021/08/04 03:26:59;;;;;;;1.60;1.50;;;;;;;16.33;92.26;98449.81;4957603;28;104183;-60
2021/08/04 03:29:27;;;;;;;1.50;1.40;;;;;;;16.34;92.14;98451.47;4955714;28;102623;-60
2021/08/04 03:31:55;;;;;;;4.10;2.00;;;;;;;16.17;93.37;98454.97;4955953;28;102597;-59
2021/08/04 03:34:24;;;;;;;4.00;1.95;;;;;;;16.22;94.04;98455.38;4957027;28;103776;-60
2021/08/04 03:36:52;;;;;;;1.90;1.65;;;;;;;16.29;92.96;98453.78;4955686;28;104384;-59
2021/08/04 03:39:20;;;;;;;2.47;1.80;;;;;;;16.31;91.66;98457.13;4956539;28;102664;-59
2021/08/04 03:41:48;;;;;;;1.80;1.67;;;;;;;16.32;91.45;98456.13;4957144;28;102650;-59
2021/08/04 03:44:17;;;;;;;1.48;1.38;;;;;;;16.28;92.00;98459.28;4953919;28;104657;-59
2021/08/04 03:46:47;;;;;;;1.50;1.40;;;;;;;16.31;91.62;98462.44;4956860;28;104466;-58
2021/08/04 03:49:16;;;;;;;4.43;1.90;;;;;;;16.30;92.61;98466.13;4958809;28;103095;-59
2021/08/04 03:51:46;;;;;;;1.65;1.55;;;;;;;16.22;93.70;98458.06;4957044;28;102796;-59
2021/08/04 03:54:14;;;;;;;2.75;1.70;;;;;;;16.24;92.65;98464.91;4958533;28;103592;-59
2021/08/04 03:56:41;;;;;;;2.85;1.60;;;;;;;16.17;91.66;98457.66;4960918;28;103339;-59
2021/08/04 03:59:09;;;;;;;1.75;1.65;;;;;;;16.18;92.03;98451.34;4960970;28;102742;-59
2021/08/04 04:01:38;;;;;;;2.03;1.40;;;;;;;16.20;92.34;98450.19;4959207;28;102807;-60
2021/08/04 04:04:06;;;;;;;1.85;1.33;;;;;;;16.22;92.58;98464.19;4958054;28;103178;-59
2021/08/04 04:06:34;;;;;;;1.67;1.58;;;;;;;16.24;92.39;98456.06;4963740;28;103095;-59
2021/08/04 04:09:04;;;;;;;1.33;1.23;;;;;;;16.23;91.85;98457.03;4957406;28;102673;-59
2021/08/04 04:11:32;;;;;;;1.50;1.40;;;;;;;16.20;92.11;98452.00;4958772;28;102718;-59
2021/08/04 04:14:00;;;;;;;1.85;1.67;;;;;;;16.12;92.47;98457.28;4958161;28;103933;-60
2021/08/04 04:16:28;;;;;;;3.05;1.70;;;;;;;15.96;92.95;98457.09;4961723;28;104278;-59
2021/08/04 04:18:56;;;;;;;1.58;1.48;;;;;;;16.01;93.03;98452.16;4959191;28;102763;-59
2021/08/04 04:21:24;;;;;;;3.90;2.00;;;;;;;15.91;93.52;98459.38;4944463;28;103146;-59
2021/08/04 04:23:52;;;;;;;2.92;2.38;;;;;;;15.78;95.20;98461.56;4956909;28;104555;-59
2021/08/04 04:26:22;;;;;;;2.88;2.05;;;;;;;15.79;95.87;98461.41;4958674;28;104299;-59
2021/08/04 04:28:50;;;;;;;2.80;1.65;;;;;;;15.83;96.36;98461.97;4959896;28;103543;-59
2021/08/04 04:31:18;;;;;;;2.67;2.45;;;;;;;15.72;95.50;98454.19;4959182;28;102676;-59
2021/08/04 04:33:46;;;;;;;1.95;1.80;;;;;;;15.79;96.09;98466.75;4961639;28;104518;-58
2021/08/04 04:36:14;;;;;;;2.40;2.20;;;;;;;15.69;96.80;98467.78;4958812;28;103239;-58
2021/08/04 04:38:42;;;;;;;2.22;2.03;;;;;;;15.78;96.37;98469.53;4960785;28;103010;-58
2021/08/04 04:41:11;;;;;;;2.70;2.40;;;;;;;15.66;95.21;98468.94;4963297;28;103182;-57
2021/08/04 04:43:41;;;;;;;2.67;2.10;;;;;;;15.78;94.90;98467.72;4961722;28;103776;-58
2021/08/04 04:46:10;;;;;;;2.00;1.80;;;;;;;15.79;95.32;98466.75;4962685;28;103348;-58
2021/08/04 04:48:38;;;;;;;1.88;1.73;;;;;;;15.91;94.80;98468.22;4965187;28;102813;-58
2021/08/04 04:51:06;;;;;;;2.47;2.28;;;;;;;15.74;94.95;98468.19;4960504;28;103130;-58
2021/08/04 04:53:34;;;;;;;6.60;2.50;;;;;;;15.71;94.98;98468.47;4942631;28;103747;-59
2021/08/04 04:56:02;;;;;;;2.05;1.85;;;;;;;15.89;95.26;98461.34;4963122;28;103357;-59
2021/08/04 04:58:30;;;;;;;3.72;2.42;;;;;;;15.98;94.93;98463.13;4946477;28;102805;-60
2021/08/04 05:00:59;;;;;;;2.30;2.10;;;;;;;16.06;94.33;98460.53;4961123;28;103001;-59
2021/08/04 05:03:28;;;;;;;2.17;1.97;;;;;;;16.18;93.89;98467.31;4961456;28;103943;-60
2021/08/04 05:05:56;;;;;;;3.47;2.53;;;;;;;16.25;92.81;98476.41;4961920;28;103508;-60
2021/08/04 05:08:24;;;;;;;2.15;2.00;;;;;;;16.28;93.46;98472.59;4966309;28;102663;-59
2021/08/04 05:10:52;;;;;;;1.55;1.38;;;;;;;16.36;93.45;98473.53;4960109;28;102632;-60
2021/08/04 05:13:20;;;;;;;2.00;1.73;;;;;;;16.48;92.66;98474.94;4962718;28;103193;-59
2021/08/04 05:15:48;;;;;;;3.15;2.55;;;;;;;16.49;91.34;98476.63;4960936;28;104438;-59
2021/08/04 05:18:18;;;;;;;2.40;2.20;;;;;;;16.53;90.96;98472.69;4959514;28;103286;-59
2021/08/04 05:20:46;;;;;;;2.10;1.90;;;;;;;16.62;90.84;98481.59;4960084;28;102857;-59
2021/08/04 05:23:15;;;;;;;2.33;2.13;;;;;;;16.76;90.88;98481.03;4962073;28;103215;-60
2021/08/04 05:25:45;;;;;;;2.55;2.22;;;;;;;16.87;90.06;98478.13;4946309;28;104258;-59
2021/08/04 05:28:14;;;;;;;2.25;2.05;;;;;;;17.05;88.85;98478.09;4959291;28;104260;-59
2021/08/04 05:30:42;;;;;;;2.95;2.00;;;;;;;17.06;87.36;98477.09;4956080;28;102753;-59
2021/08/04 05:33:10;;;;;;;2.00;1.90;;;;;;;17.20;86.81;98488.06;4956648;28;103881;-59
2021/08/04 05:35:40;;;;;;;3.72;2.55;;;;;;;17.27;84.70;98488.25;4954925;28;104336;-62
2021/08/04 05:38:08;;;;;;;2.15;1.95;;;;;;;17.32;83.65;98485.94;4952425;28;102630;-60
2021/08/04 05:40:36;;;;;;;2.40;2.00;;;;;;;17.40;82.32;98491.34;4956121;28;102680;-60
2021/08/04 05:43:04;;;;;;;2.33;2.00;;;;;;;17.63;82.25;98488.94;4953664;28;103375;-59
2021/08/04 05:45:33;;;;;;;4.10;2.15;;;;;;;17.72;82.07;98494.19;4954942;28;103256;-59
2021/08/04 05:48:04;;;;;;;1.40;1.30;;;;;;;17.66;78.67;98486.81;4947842;28;103143;-59
2021/08/04 05:50:33;;;;;;;3.78;2.03;;;;;;;17.84;79.01;98482.22;4954131;28;102791;-59
2021/08/04 05:53:03;;;;;;;1.95;1.83;;;;;;;18.04;78.64;98490.81;4953801;28;103286;-58
2021/08/04 05:55:31;;;;;;;1.75;1.65;;;;;;;18.20;76.25;98485.50;4957062;28;104479;-60
2021/08/04 05:57:59;;;;;;;2.10;1.90;;;;;;;18.14;76.78;98477.28;4955016;28;103093;-57
2021/08/04 06:00:27;;;;;;;2.20;2.00;;;;;;;17.98;77.91;98482.59;4954927;28;102873;-59
2021/08/04 06:02:55;;;;;;;2.05;1.95;;;;;;;17.99;77.06;98474.44;4953638;28;103194;-59
2021/08/04 06:05:24;;;;;;;1.90;1.80;;;;;;;18.04;76.94;98476.59;4950343;28;103351;-59
2021/08/04 06:07:52;;;;;;;2.53;2.00;;;;;;;18.15;74.79;98476.28;4952781;28;102631;-59
2021/08/04 06:10:21;;;;;;;2.00;1.80;;;;;;;17.69;75.61;98473.13;4936956;28;102738;-59
2021/08/04 06:12:50;;;;;;;1.98;1.88;;;;;;;17.98;76.07;98478.09;4953735;28;103416;-59
2021/08/04 06:15:18;;;;;;;1.77;1.67;;;;;;;18.16;76.66;98483.31;4955128;28;104301;-60
2021/08/04 06:17:47;;;;;;;1.70;1.60;;;;;;;18.41;75.48;98479.69;4936470;28;102761;-62
2021/08/04 06:20:15;;;;;;;2.67;1.50;;;;;;;18.53;75.62;98478.38;4954532;28;102636;-59
2021/08/04 06:22:43;;;;;;;2.88;1.83;;;;;;;18.40;75.70;98480.69;4951367;28;103401;-58
2021/08/04 06:25:12;;;;;;;1.60;1.50;;;;;;;18.79;74.91;98483.56;4953602;28;104463;-59
2021/08/04 06:27:42;;;;;;;1.50;1.40;;;;;;;19.07;74.04;98477.72;4954528;28;103062;-59
2021/08/04 06:30:11;;;;;;;2.05;1.90;;;;;;;19.02;72.81;98466.69;4942643;28;102688;-59
2021/08/04 06:32:39;;;;;;;1.60;1.50;;;;;;;19.10;73.62;98477.38;4960650;28;103707;-59
2021/08/04 06:35:10;;;;;;;1.60;1.50;;;;;;;19.14;71.91;98471.69;4957943;28;103126;-59
2021/08/04 06:37:38;;;;;;;2.40;2.03;;;;;;;19.18;71.62;98483.69;4957991;28;102640;-60
2021/08/04 06:40:07;;;;;;;2.97;1.80;;;;;;;19.09;70.30;98490.91;4957790;28;103092;-58
2021/08/04 06:42:35;;;;;;;3.40;2.47;;;;;;;18.95;69.88;98489.75;4941544;28;106099;-58
2021/08/04 06:45:06;;;;;;;2.20;2.00;;;;;;;18.72;73.53;98496.81;4957960;28;105061;-59
2021/08/04 06:47:34;;;;;;;1.98;1.80;;;;;;;18.85;71.22;98498.97;4949727;28;102699;-60
2021/08/04 06:50:02;;;;;;;2.10;1.90;;;;;;;18.94;70.03;98498.81;4957539;28;102649;-60
2021/08/04 06:52:30;;;;;;;1.70;1.60;;;;;;;19.03;72.30;98497.78;4954946;28;103393;-59
2021/08/04 06:54:58;;;;;;;1.88;1.77;;;;;;;19.20;71.68;98497.78;4959474;28;103125;-60
2021/08/04 06:57:26;;;;;;;3.17;2.00;;;;;;;19.02;70.66;98504.16;4938992;28;102995;-60
2021/08/04 06:59:54;;;;;;;4.25;1.95;;;;;;;19.02;68.60;98501.47;4955319;28;102688;-58
2021/08/04 07:02:24;;;;;;;2.33;1.55;;;;;;;19.14;69.28;98495.78;4955513;28;104768;-59
2021/08/04 07:04:52;;;;;;;2.55;1.88;;;;;;;19.35;70.25;98496.91;4954742;28;103223;-60
2021/08/04 07:07:20;;;;;;;2.35;1.85;;;;;;;19.28;71.13;98492.41;4956145;28;102636;-59
2021/08/04 07:09:48;;;;;;;1.80;1.70;;;;;;;19.36;71.44;98500.41;4955122;28;102578;-58
2021/08/04 07:12:16;;;;;;;2.88;1.50;;;;;;;19.54;71.85;98498.38;4956593;28;103391;-59
2021/08/04 07:14:45;;;;;;;2.10;1.90;;;;;;;19.74;71.33;98506.84;4952822;28;104271;-59
2021/08/04 07:17:13;;;;;;;2.00;1.80;;;;;;;20.02;68.12;98502.72;4955966;28;103431;-60
2021/08/04 07:19:42;;;;;;;2.35;1.75;;;;;;;19.83;67.40;98506.66;4958144;28;102674;-59
2021/08/04 07:29:06;;;;;;;1.98;1.73;;;;;;;20.48;65.64;98496.47;4950554;28;102747;-58
2021/08/04 07:31:37;;;;;;;1.60;1.50;;;;;;;20.95;63.85;98493.56;4961036;28;102689;-59
2021/08/04 07:34:08;;;;;;;2.45;2.00;;;;;;;20.68;63.78;98486.09;4960814;28;103363;-59
2021/08/04 07:36:38;;;;;;;2.08;1.73;;;;;;;20.95;62.65;98488.19;4957700;28;103362;-59
2021/08/04 07:39:07;;;;;;;1.63;1.33;;;;;;;21.58;62.74;98492.31;4961062;28;102674;-59
2021/08/04 07:41:35;;;;;;;2.35;2.10;;;;;;;20.47;64.48;98499.31;4958379;28;102677;-59
2021/08/04 07:44:03;;;;;;;1.88;1.60;;;;;;;19.52;66.53;98497.72;4954931;28;104399;-59
2021/08/04 07:46:44;;;;;;;2.75;1.85;;;;;;;20.58;63.59;98496.22;4937409;28;103114;-59
2021/08/04 07:49:40;;;;;;;2.58;1.50;;;;;;;20.76;63.29;98494.91;4957081;28;102983;-59
2021/08/04 07:52:10;;;;;;;1.98;1.70;;;;;;;20.74;64.88;98501.47;4958863;28;102736;-59
2021/08/04 07:54:39;;;;;;;2.30;1.85;;;;;;;20.79;63.21;98493.72;4957527;28;103523;-60
2021/08/04 07:57:07;;;;;;;2.55;1.77;;;;;;;20.62;62.53;98493.00;4941992;28;105225;-60
2021/08/04 07:59:35;;;;;;;2.03;1.80;;;;;;;20.64;62.53;98487.44;4953962;28;102646;-59
2021/08/04 08:11:30;;;;;;;1.80;1.70;;;;;;;21.58;61.20;98478.88;4947699;28;103138;-59
2021/08/04 08:13:59;;;;;;;2.28;1.70;;;;;;;22.01;59.47;98474.53;4954238;28;102848;-60
2021/08/04 08:16:28;;;;;;;2.03;1.60;;;;;;;22.73;57.85;98464.56;4957863;28;103369;-60
2021/08/04 08:18:57;;;;;;;1.70;1.52;;;;;;;21.99;58.56;98471.16;4943233;28;103344;-60
2021/08/04 08:21:29;;;;;;;2.60;2.00;;;;;;;20.40;62.19;98476.91;4957081;28;103101;-59
2021/08/04 08:23:57;;;;;;;2.05;1.77;;;;;;;20.43;63.06;98473.88;4938833;28;102984;-60
2021/08/04 08:26:28;;;;;;;2.35;1.80;;;;;;;20.53;60.78;98483.34;4953076;28;103723;-60
2021/08/04 08:28:57;;;;;;;3.17;2.00;;;;;;;21.78;60.02;98474.59;4955242;28;104485;-60
2021/08/04 08:31:25;;;;;;;1.77;1.40;;;;;;;22.72;59.19;98481.72;4960640;28;103015;-60
2021/08/04 08:33:54;;;;;;;2.25;2.05;;;;;;;22.56;58.49;98479.25;4956154;28;103053;-59
2021/08/04 08:36:22;;;;;;;1.95;1.60;;;;;;;21.50;59.02;98481.66;4958529;28;103701;-60
2021/08/04 08:38:50;;;;;;;3.67;1.80;;;;;;;21.97;58.03;98482.13;4960529;28;103342;-60
2021/08/04 08:41:18;;;;;;;3.15;1.83;;;;;;;21.93;58.07;98487.03;4960040;28;102652;-60
2021/08/04 08:43:47;;;;;;;1.85;1.60;;;;;;;22.11;57.67;98486.66;4927957;28;102801;-59
2021/08/04 08:46:17;;;;;;;2.03;1.80;;;;;;;22.01;59.16;98486.09;4959378;28;104525;-60
2021/08/04 08:48:47;;;;;;;2.47;1.90;;;;;;;22.05;58.48;98486.56;4958628;28;104049;-60
2021/08/04 08:51:17;;;;;;;2.08;1.52;;;;;;;21.88;59.38;98491.31;4958768;28;102636;-59
2021/08/04 08:53:46;;;;;;;2.75;1.70;;;;;;;21.76;60.49;98487.38;4961073;28;102683;-59
2021/08/04 08:56:18;;;;;;;2.55;2.13;;;;;;;21.39;56.95;98486.44;4960683;28;103421;-59
2021/08/04 08:58:46;;;;;;;1.83;1.42;;;;;;;21.51;59.93;98486.00;4958244;28;103379;-60
2021/08/04 09:01:14;;;;;;;2.25;1.63;;;;;;;21.76;59.27;98482.84;4959613;28;102694;-60
2021/08/04 09:03:45;;;;;;;2.25;2.05;;;;;;;21.93;59.61;98478.13;4960345;28;103080;-60
2021/08/04 09:06:13;;;;;;;4.00;2.17;;;;;;;20.78;58.67;98476.78;4962376;28;103323;-59
2021/08/04 09:08:41;;;;;;;2.72;2.13;;;;;;;21.45;58.80;98467.91;4947994;28;103150;-60
2021/08/04 09:11:12;;;;;;;2.30;1.70;;;;;;;20.32;59.72;98468.91;4960095;28;103057;-61
2021/08/04 09:13:41;;;;;;;1.63;1.52;;;;;;;20.83;60.42;98456.63;4959470;28;102683;-60
2021/08/04 09:16:15;;;;;;;1.77;1.67;;;;;;;22.07;58.85;98452.22;4956364;28;104593;-60
2021/08/04 09:18:48;;;;;;;2.00;1.50;;;;;;;21.84;59.56;98457.69;4937751;28;104367;-59
2021/08/04 09:21:17;;;;;;;1.77;1.67;;;;;;;22.39;58.74;98452.59;4954048;28;103308;-60
2021/08/04 09:23:47;;;;;;;1.98;1.67;;;;;;;21.64;55.83;98452.06;4960816;28;103683;-59
2021/08/04 09:26:18;;;;;;;2.65;1.60;;;;;;;21.37;58.14;98445.50;4925800;28;103666;-59
2021/08/04 09:28:55;;;;;;;2.30;1.48;;;;;;;21.56;60.21;98441.41;4958871;28;103375;-60
2021/08/04 09:31:45;;;;;;;3.28;1.70;;;;;;;21.19;58.40;98430.78;4944046;28;102721;-61
2021/08/04 09:34:34;;;;;;;2.08;1.73;;;;;;;21.37;59.02;98428.53;4959490;28;102665;-60
2021/08/04 09:37:07;;;;;;;3.25;2.10;;;;;;;20.84;62.17;98434.94;4960849;28;103667;-61
2021/08/04 09:39:36;;;;;;;2.17;1.65;;;;;;;21.86;59.47;98428.78;4959787;28;104278;-60
2021/08/04 09:42:05;;;;;;;1.90;1.67;;;;;;;22.84;56.69;98429.03;4962085;28;102578;-59
2021/08/04 09:44:34;;;;;;;2.30;2.00;;;;;;;22.85;57.12;98426.13;4962562;28;102764;-59
2021/08/04 09:47:07;;;;;;;2.05;1.70;;;;;;;22.41;56.25;98429.00;4961659;28;103409;-59
2021/08/04 09:49:37;;;;;;;1.75;1.63;;;;;;;21.80;56.78;98434.91;4961619;28;103592;-60
2021/08/04 09:52:08;;;;;;;1.58;1.48;;;;;;;21.88;57.73;98432.16;4960782;28;102565;-60
2021/08/04 09:54:38;;;;;;;2.47;2.20;;;;;;;22.18;55.20;98425.66;4943868;28;102637;-60
2021/08/04 09:57:06;;;;;;;1.70;1.48;;;;;;;21.78;56.10;98431.59;4955314;28;103369;-60
2021/08/04 09:59:35;;;;;;;1.65;1.45;;;;;;;21.94;56.89;98426.03;4956776;28;104241;-61
2021/08/04 10:02:04;;;;;;;1.92;1.83;;;;;;;20.82;59.41;98426.25;4940024;28;103674;-61
2021/08/04 10:04:33;;;;;;;2.97;1.98;;;;;;;20.44;64.13;98422.69;4955988;28;102599;-60
2021/08/04 10:07:07;;;;;;;2.30;2.05;;;;;;;21.18;61.92;98429.09;4957741;28;103242;-61
2021/08/04 10:09:37;;;;;;;2.92;2.08;;;;;;;21.18;61.74;98419.19;4952787;28;103148;-61
2021/08/04 10:12:07;;;;;;;2.95;1.88;;;;;;;20.44;63.41;98429.91;4941088;28;102732;-61
2021/08/04 10:14:36;;;;;;;2.35;2.15;;;;;;;20.26;63.08;98432.06;4917552;28;102702;-59
2021/08/04 10:17:06;;;;;;;2.65;1.98;;;;;;;21.11;62.37;98429.00;4916026;28;104545;-60
2021/08/04 10:20:04;;;;;;;1.85;1.73;;;;;;;21.16;61.84;98423.94;4915078;28;103442;-61
2021/08/04 10:22:37;;;;;;;2.60;2.08;;;;;;;20.01;63.63;98429.53;4895851;28;102715;-60
2021/08/04 10:25:06;;;;;;;3.15;1.90;;;;;;;19.88;64.25;98418.50;4915311;28;103047;-60
2021/08/04 10:27:35;;;;;;;2.10;1.90;;;;;;;20.41;63.66;98414.16;4911116;28;104474;-59
2021/08/04 10:30:04;;;;;;;2.15;1.90;;;;;;;21.21;62.65;98402.72;4912350;28;103096;-60
2021/08/04 10:32:32;;;;;;;2.70;2.03;;;;;;;20.61;61.28;98404.59;4892470;28;102747;-60
2021/08/04 10:35:01;;;;;;;2.58;2.25;;;;;;;20.23;65.08;98398.34;4915587;28;102698;-59
2021/08/04 10:37:29;;;;;;;1.70;1.60;;;;;;;21.02;64.18;98400.53;4915168;28;103367;-60
2021/08/04 10:40:00;;;;;;;1.90;1.80;;;;;;;20.45;62.77;98399.38;4908979;28;103372;-60
2021/08/04 10:42:39;;;;;;;1.92;1.73;;;;;;;21.07;61.18;98390.09;4893081;28;102789;-61
2021/08/04 10:45:29;;;;;;;2.28;2.08;;;;;;;20.62;61.71;98400.91;4911804;28;103091;-61
2021/08/04 10:47:59;;;;;;;3.05;2.03;;;;;;;20.04;63.84;98405.00;4900654;28;103491;-60
2021/08/04 10:50:27;;;;;;;2.55;2.17;;;;;;;20.72;63.15;98388.91;4915941;28;106790;-61
2021/08/04 10:53:06;;;;;;;1.85;1.75;;;;;;;21.12;63.08;98393.06;4938442;28;102933;-60
2021/08/04 10:55:54;;;;;;;2.85;2.30;;;;;;;21.10;62.61;98386.22;4935708;28;103089;-60
2021/08/04 10:58:23;;;;;;;3.03;1.80;;;;;;;21.64;61.77;98389.44;4930320;28;103396;-60
2021/08/04 11:01:14;;;;;;;2.40;2.20;;;;;;;21.24;62.72;98386.22;4938988;28;104449;-59
2021/08/04 11:03:47;;;;;;;3.05;2.70;;;;;;;20.41;61.29;98390.00;4922120;28;102707;-60
2021/08/04 11:06:16;;;;;;;4.90;2.53;;;;;;;20.65;61.34;98379.94;4939108;28;102990;-60
2021/08/04 11:08:47;;;;;;;4.53;3.10;;;;;;;21.25;59.27;98381.66;4939542;28;104485;-60
2021/08/04 11:11:57;;;;;;;3.20;2.40;;;;;;;22.21;59.01;98379.53;4938445;28;103716;-60
2021/08/04 11:14:44;;;;;;;2.17;2.03;;;;;;;23.07;57.40;98379.25;4914213;28;103026;-60
2021/08/04 11:17:13;;;;;;;2.63;2.28;;;;;;;23.28;57.75;98366.72;4938634;28;102715;-60
2021/08/04 11:20:13;;;;;;;3.08;2.70;;;;;;;21.62;59.17;98370.78;4936255;28;104567;-60
2021/08/04 11:22:48;;;;;;;3.72;2.42;;;;;;;22.08;58.67;98373.19;4939129;28;104467;-60
2021/08/04 11:25:35;;;;;;;3.00;2.70;;;;;;;22.18;56.69;98363.78;4936980;28;102986;-59
2021/08/04 11:28:17;;;;;;;3.53;2.50;;;;;;;22.56;59.54;98363.50;4930294;28;102719;-59
2021/08/04 11:30:51;;;;;;;3.55;2.53;;;;;;;23.39;58.01;98358.94;4937066;28;104507;-60
2021/08/04 11:33:29;;;;;;;2.97;2.28;;;;;;;23.72;55.44;98358.28;4939205;28;104329;-60
2021/08/04 11:36:08;;;;;;;2.17;1.98;;;;;;;23.98;55.77;98352.94;4936648;28;102659;-60
2021/08/04 11:38:42;;;;;;;3.20;2.30;;;;;;;24.07;54.90;98346.31;4935342;28;102591;-60
2021/08/04 11:41:25;;;;;;;2.58;1.98;;;;;;;24.11;53.33;98350.31;4936875;28;103999;-60
2021/08/04 11:44:00;;;;;;;4.30;2.03;;;;;;;24.10;52.56;98345.94;4937561;28;104387;-60
2021/08/04 11:46:30;;;;;;;4.75;1.98;;;;;;;22.70;54.71;98359.94;4938233;28;102686;-60
2021/08/04 11:48:59;;;;;;;2.67;1.92;;;;;;;22.95;55.74;98364.69;4937814;28;102654;-61
2021/08/04 11:51:35;;;;;;;2.33;2.13;;;;;;;22.97;57.41;98359.09;4937850;28;104305;-60
2021/08/04 11:54:05;;;;;;;4.18;2.50;;;;;;;23.70;55.11;98358.44;4936697;28;104270;-60
2021/08/04 11:56:33;;;;;;;2.00;1.80;;;;;;;24.03;56.01;98350.44;4933317;28;102599;-60